Time;durP1;ratioP1;P1;durP2;ratioP2;P2;SDS_P1;SDS_P2;PMS_P1;PMS_P2;Temp;Humidity;BMP_temperature;BMP_pressure;BME280_temperature;BME280_humidity;BME280_pressure;Samples;Min_cycle;Max_cycle;Signal;HPM_P1;HPM_P2
2022/06/19 00:02:18;;;;;;;7.72;5.20;;;;;;;;;;1767014;80;21020;-72
2022/06/19 00:04:44;;;;;;;9.43;5.28;;;;;;;;;;1745829;80;21005;-72
2022/06/19 00:07:11;;;;;;;8.50;5.55;;;;;;;;;;1737753;82;21064;-72
2022/06/19 00:09:37;;;;;;;8.45;4.80;;;;;;;;;;1757762;80;21000;-72
2022/06/19 00:12:04;;;;;;;9.35;5.20;;;;;;;;;;1787716;80;21040;-72
2022/06/19 00:14:30;;;;;;;7.55;4.97;;;;;;;;;;1749867;80;20993;-72
2022/06/19 00:16:57;;;;;;;8.68;6.12;;;;;;;;;;1740121;82;21080;-72
2022/06/19 00:19:23;;;;;;;11.60;6.37;;;;;;;;;;1783342;80;21000;-72
2022/06/19 00:21:49;;;;;;;13.43;6.00;;;;;;;;;;1761254;80;21013;-72
2022/06/19 00:24:17;;;;;;;6.83;5.28;;;;;;;;;;1742259;80;21504;-72
2022/06/19 00:26:43;;;;;;;9.10;6.03;;;;;;;;;;1753555;81;21032;-72
2022/06/19 00:29:09;;;;;;;8.20;5.78;;;;;;;;;;1765986;80;21032;-72
2022/06/19 00:31:36;;;;;;;9.98;5.60;;;;;;;;;;1769391;80;21080;-73
2022/06/19 00:34:02;;;;;;;8.20;5.72;;;;;;;;;;1761774;80;21060;-72
2022/06/19 00:36:29;;;;;;;8.85;5.72;;;;;;;;;;1755819;81;21068;-72
2022/06/19 00:38:55;;;;;;;8.88;6.08;;;;;;;;;;1770901;80;20989;-72
2022/06/19 00:41:21;;;;;;;7.97;5.80;;;;;;;;;;1779281;80;21025;-72
2022/06/19 00:43:55;;;;;;;8.45;5.53;;;;;;;;;;1742721;80;21072;-72
2022/06/19 00:46:39;;;;;;;10.32;5.55;;;;;;;;;;1749597;82;21014;-72
2022/06/19 00:49:05;;;;;;;6.87;5.15;;;;;;;;;;1755414;80;21085;-71
2022/06/19 00:51:32;;;;;;;9.73;5.97;;;;;;;;;;1768935;81;21001;-72
2022/06/19 00:53:59;;;;;;;9.53;5.40;;;;;;;;;;1753461;80;21084;-72
2022/06/19 00:56:27;;;;;;;8.45;5.03;;;;;;;;;;1751789;81;21460;-72
2022/06/19 00:58:54;;;;;;;7.55;5.80;;;;;;;;;;1755997;82;21070;-72
2022/06/19 01:04:16;;;;;;;9.03;5.03;;;;;;;;;;1745983;79;73892;-72
2022/06/19 01:06:43;;;;;;;6.40;5.33;;;;;;;;;;1773505;81;21566;-72
2022/06/19 01:09:08;;;;;;;8.33;5.72;;;;;;;;;;1777906;80;21469;-72
2022/06/19 01:11:35;;;;;;;8.45;5.53;;;;;;;;;;1807711;79;21002;-72
2022/06/19 01:14:02;;;;;;;8.10;6.00;;;;;;;;;;1773112;81;21050;-72
2022/06/19 01:16:29;;;;;;;7.60;4.97;;;;;;;;;;1773811;79;21098;-72
2022/06/19 01:18:56;;;;;;;7.12;5.53;;;;;;;;;;1773907;81;21050;-72
2022/06/19 01:21:26;;;;;;;7.58;5.50;;;;;;;;;;1773426;79;21022;-72
2022/06/19 01:24:10;;;;;;;7.75;5.37;;;;;;;;;;1770981;81;21070;-72
2022/06/19 01:26:36;;;;;;;9.40;5.33;;;;;;;;;;1773443;79;21064;-72
2022/06/19 01:29:02;;;;;;;6.83;5.05;;;;;;;;;;1773221;81;21025;-72
2022/06/19 01:31:30;;;;;;;7.37;5.20;;;;;;;;;;1773362;81;21024;-72
2022/06/19 01:33:59;;;;;;;7.42;5.05;;;;;;;;;;1781264;79;21091;-72
2022/06/19 01:36:25;;;;;;;7.62;5.60;;;;;;;;;;1739834;81;21521;-72
2022/06/19 01:38:51;;;;;;;7.25;5.62;;;;;;;;;;1723607;82;21030;-72
2022/06/19 01:41:25;;;;;;;7.22;4.92;;;;;;;;;;1757101;82;20997;-72
2022/06/19 01:43:51;;;;;;;7.15;5.30;;;;;;;;;;1751717;81;21014;-72
2022/06/19 01:46:17;;;;;;;5.85;4.65;;;;;;;;;;1739269;81;21067;-72
2022/06/19 01:48:44;;;;;;;9.23;4.72;;;;;;;;;;1739826;81;21079;-72
2022/06/19 01:51:11;;;;;;;7.40;5.00;;;;;;;;;;1739344;82;21036;-72
2022/06/19 01:53:45;;;;;;;5.90;4.12;;;;;;;;;;1739054;81;21039;-72
2022/06/19 01:56:12;;;;;;;7.12;4.42;;;;;;;;;;1717446;81;21028;-73
2022/06/19 01:58:46;;;;;;;6.60;4.72;;;;;;;;;;1723253;82;21019;-73
2022/06/19 02:01:12;;;;;;;7.58;4.58;;;;;;;;;;1729605;83;21064;-72
2022/06/19 02:03:42;;;;;;;8.38;5.00;;;;;;;;;;1740481;81;21067;-72
2022/06/19 02:06:09;;;;;;;7.22;4.83;;;;;;;;;;1752663;81;21083;-72
2022/06/19 02:08:36;;;;;;;10.55;4.58;;;;;;;;;;1775173;80;21012;-73
2022/06/19 02:11:04;;;;;;;6.80;4.90;;;;;;;;;;1737146;81;21586;-73
2022/06/19 02:13:32;;;;;;;7.80;5.12;;;;;;;;;;1757490;81;21619;-73
2022/06/19 02:15:59;;;;;;;6.05;4.47;;;;;;;;;;1742255;81;21039;-72
2022/06/19 02:18:27;;;;;;;6.75;4.55;;;;;;;;;;1782842;80;21592;-72
2022/06/19 02:20:53;;;;;;;5.35;4.12;;;;;;;;;;1784858;80;20961;-72
2022/06/19 02:23:20;;;;;;;5.78;4.47;;;;;;;;;;1757512;82;21029;-72
2022/06/19 02:25:46;;;;;;;7.70;3.90;;;;;;;;;;1757068;81;21509;-72
2022/06/19 02:28:12;;;;;;;7.05;4.37;;;;;;;;;;1757553;82;21573;-72
2022/06/19 02:30:38;;;;;;;6.40;4.25;;;;;;;;;;1762571;80;21075;-72
2022/06/19 02:33:05;;;;;;;5.50;3.92;;;;;;;;;;1780514;80;21012;-73
2022/06/19 02:35:30;;;;;;;8.98;3.87;;;;;;;;;;1780296;80;20996;-72
2022/06/19 02:37:58;;;;;;;4.90;3.83;;;;;;;;;;1765688;80;21015;-72
2022/06/19 02:40:43;;;;;;;5.20;4.35;;;;;;;;;;1763126;80;21035;-72
2022/06/19 02:43:16;;;;;;;4.95;3.75;;;;;;;;;;1760330;81;21001;-72
2022/06/19 02:45:43;;;;;;;5.05;3.85;;;;;;;;;;1759873;81;21095;-71
2022/06/19 02:48:11;;;;;;;5.55;4.10;;;;;;;;;;1763573;80;21004;-72
2022/06/19 02:50:42;;;;;;;4.65;4.12;;;;;;;;;;1764670;80;21035;-72
2022/06/19 02:53:05;;;;;;;4.58;3.58;;;;;;;;;;1783283;80;21016;-72
2022/06/19 02:55:31;;;;;;;5.53;4.20;;;;;;;;;;1741973;82;21070;-72
2022/06/19 02:57:58;;;;;;;6.17;4.08;;;;;;;;;;1727516;82;21497;-72
2022/06/19 03:00:24;;;;;;;4.70;3.92;;;;;;;;;;1765140;81;22178;-72
2022/06/19 03:02:51;;;;;;;5.03;3.85;;;;;;;;;;1747119;81;21598;-71
2022/06/19 03:05:18;;;;;;;6.33;4.70;;;;;;;;;;1760303;79;21067;-72
2022/06/19 03:07:45;;;;;;;5.00;4.47;;;;;;;;;;1764942;79;21008;-72
2022/06/19 03:10:12;;;;;;;5.12;4.00;;;;;;;;;;1741724;82;21501;-72
2022/06/19 03:12:40;;;;;;;5.65;4.30;;;;;;;;;;1748569;81;21042;-72
2022/06/19 03:15:08;;;;;;;5.90;4.40;;;;;;;;;;1750159;82;21044;-72
2022/06/19 03:17:35;;;;;;;5.22;4.72;;;;;;;;;;1782673;80;21040;-71
2022/06/19 03:20:01;;;;;;;6.80;5.42;;;;;;;;;;1783382;80;21078;-70
2022/06/19 03:22:29;;;;;;;5.33;4.42;;;;;;;;;;1775176;79;21000;-71
2022/06/19 03:24:55;;;;;;;5.37;4.85;;;;;;;;;;1760673;81;21530;-71
2022/06/19 03:27:21;;;;;;;7.58;4.37;;;;;;;;;;1743327;82;21092;-72
2022/06/19 03:29:47;;;;;;;4.67;4.17;;;;;;;;;;1743813;81;20984;-71
2022/06/19 03:32:13;;;;;;;5.97;3.85;;;;;;;;;;1780079;79;20988;-71
2022/06/19 03:34:39;;;;;;;7.65;4.10;;;;;;;;;;1771927;79;21499;-73
2022/06/19 03:37:06;;;;;;;4.60;3.72;;;;;;;;;;1780964;79;21626;-72
2022/06/19 03:39:32;;;;;;;5.42;3.77;;;;;;;;;;1773197;80;21036;-72
2022/06/19 03:41:58;;;;;;;5.22;3.92;;;;;;;;;;1779070;79;21017;-72
2022/06/19 03:44:26;;;;;;;4.00;3.47;;;;;;;;;;1787074;80;21057;-71
2022/06/19 03:46:52;;;;;;;5.53;4.00;;;;;;;;;;1729836;81;21061;-72
2022/06/19 03:49:18;;;;;;;4.67;3.62;;;;;;;;;;1727915;83;21101;-72
2022/06/19 03:51:46;;;;;;;4.30;3.65;;;;;;;;;;1734471;80;21067;-72
2022/06/19 03:54:12;;;;;;;5.45;3.65;;;;;;;;;;1759297;81;21019;-71
2022/06/19 03:56:38;;;;;;;8.25;3.35;;;;;;;;;;1741775;82;21063;-72
2022/06/19 03:59:04;;;;;;;4.22;3.35;;;;;;;;;;1746031;82;21044;-72
2022/06/19 04:01:31;;;;;;;4.72;3.83;;;;;;;;;;1748953;81;21049;-72
2022/06/19 04:03:58;;;;;;;3.87;3.35;;;;;;;;;;1737262;81;21120;-71
2022/06/19 04:06:29;;;;;;;4.45;3.15;;;;;;;;;;1758648;81;21059;-71
2022/06/19 04:08:55;;;;;;;4.87;3.67;;;;;;;;;;1720996;82;21485;-71
2022/06/19 04:11:22;;;;;;;6.03;4.28;;;;;;;;;;1722146;82;21034;-72
2022/06/19 04:13:52;;;;;;;5.35;3.90;;;;;;;;;;1744209;81;21009;-72
2022/06/19 04:16:19;;;;;;;4.97;3.75;;;;;;;;;;1723764;82;21025;-72
2022/06/19 04:18:47;;;;;;;4.95;3.20;;;;;;;;;;1747975;82;21051;-72
2022/06/19 04:21:14;;;;;;;4.10;3.60;;;;;;;;;;1751136;80;21103;-72
2022/06/19 04:23:43;;;;;;;4.72;3.52;;;;;;;;;;1724725;83;21520;-72
2022/06/19 04:26:10;;;;;;;4.92;3.83;;;;;;;;;;1751808;81;21068;-72
2022/06/19 04:28:36;;;;;;;5.15;3.65;;;;;;;;;;1762132;81;21000;-72
2022/06/19 04:31:02;;;;;;;5.33;3.75;;;;;;;;;;1750560;81;21068;-72
2022/06/19 04:33:28;;;;;;;7.42;3.75;;;;;;;;;;1727593;83;21008;-71
2022/06/19 04:35:54;;;;;;;4.53;3.35;;;;;;;;;;1740634;81;21004;-72
2022/06/19 04:38:20;;;;;;;5.08;3.55;;;;;;;;;;1744868;81;21088;-71
2022/06/19 04:40:47;;;;;;;4.60;3.50;;;;;;;;;;1729253;82;21540;-72
2022/06/19 04:43:13;;;;;;;3.95;3.30;;;;;;;;;;1731039;81;21563;-73
2022/06/19 04:45:40;;;;;;;7.45;3.65;;;;;;;;;;1750785;81;21021;-72
2022/06/19 04:48:06;;;;;;;5.22;3.42;;;;;;;;;;1730561;81;21515;-72
2022/06/19 04:50:33;;;;;;;4.10;3.35;;;;;;;;;;1718230;82;21088;-71
2022/06/19 04:52:59;;;;;;;6.15;3.77;;;;;;;;;;1731467;81;21056;-70
2022/06/19 04:55:25;;;;;;;4.85;3.50;;;;;;;;;;1743297;81;21044;-70
2022/06/19 04:57:51;;;;;;;5.20;3.50;;;;;;;;;;1731394;83;21044;-70
2022/06/19 05:00:19;;;;;;;5.50;3.52;;;;;;;;;;1709406;81;21587;-70
2022/06/19 05:02:47;;;;;;;4.55;3.30;;;;;;;;;;1724091;80;21543;-70
2022/06/19 05:05:15;;;;;;;6.00;5.37;;;;;;;;;;1747422;80;21033;-71
2022/06/19 05:07:41;;;;;;;7.53;6.10;;;;;;;;;;1754567;80;21010;-71
2022/06/19 05:10:09;;;;;;;5.75;3.37;;;;;;;;;;1759744;80;21002;-71
2022/06/19 05:12:37;;;;;;;4.65;3.40;;;;;;;;;;1771378;80;21095;-70
2022/06/19 05:15:03;;;;;;;3.67;2.83;;;;;;;;;;1763705;80;20996;-71
2022/06/19 05:17:29;;;;;;;3.25;2.70;;;;;;;;;;1732499;80;21477;-70
2022/06/19 05:19:57;;;;;;;3.75;2.37;;;;;;;;;;1733781;80;21030;-69
2022/06/19 05:22:24;;;;;;;2.85;2.52;;;;;;;;;;1772139;80;21028;-69
2022/06/19 05:24:50;;;;;;;3.65;2.40;;;;;;;;;;1763223;81;21662;-69
2022/06/19 05:27:16;;;;;;;2.70;2.30;;;;;;;;;;1787020;79;21137;-69
2022/06/19 05:29:43;;;;;;;3.15;2.40;;;;;;;;;;1753813;82;21416;-69
2022/06/19 05:32:10;;;;;;;2.95;2.30;;;;;;;;;;1772367;80;21144;-69
2022/06/19 05:34:36;;;;;;;4.70;2.35;;;;;;;;;;1773199;81;21057;-69
2022/06/19 05:37:03;;;;;;;4.25;2.37;;;;;;;;;;1759163;81;21032;-69
2022/06/19 05:39:29;;;;;;;2.37;2.15;;;;;;;;;;1765404;80;21004;-70
2022/06/19 05:41:57;;;;;;;3.62;2.20;;;;;;;;;;1773424;80;21005;-70
2022/06/19 05:44:23;;;;;;;2.40;2.10;;;;;;;;;;1792500;80;20993;-68
2022/06/19 05:46:50;;;;;;;3.65;2.20;;;;;;;;;;1755826;82;21035;-71
2022/06/19 05:49:16;;;;;;;2.40;2.20;;;;;;;;;;1772224;80;21016;-71
2022/06/19 05:51:42;;;;;;;2.40;2.12;;;;;;;;;;1751520;81;21247;-71
2022/06/19 05:54:08;;;;;;;4.03;2.55;;;;;;;;;;1754537;81;20965;-71
2022/06/19 05:56:36;;;;;;;3.02;2.15;;;;;;;;;;1792824;80;21016;-71
2022/06/19 05:59:02;;;;;;;3.75;2.40;;;;;;;;;;1769971;81;21027;-70
2022/06/19 06:01:28;;;;;;;2.40;2.12;;;;;;;;;;1737661;81;21051;-69
2022/06/19 06:03:55;;;;;;;2.12;1.92;;;;;;;;;;1755674;80;21044;-71
2022/06/19 06:06:21;;;;;;;2.47;1.80;;;;;;;;;;1727032;82;21044;-71
2022/06/19 06:08:48;;;;;;;2.67;1.90;;;;;;;;;;1741609;81;20993;-71
2022/06/19 06:11:14;;;;;;;2.08;1.80;;;;;;;;;;1722202;82;21056;-72
2022/06/19 06:13:40;;;;;;;7.55;6.80;;;;;;;;;;1730117;81;21020;-72
2022/06/19 06:16:06;;;;;;;6.17;3.60;;;;;;;;;;1745516;80;21512;-72
2022/06/19 06:18:34;;;;;;;2.92;2.27;;;;;;;;;;1742422;81;21004;-72
2022/06/19 06:21:05;;;;;;;2.33;2.10;;;;;;;;;;1745929;82;20996;-71
2022/06/19 06:23:31;;;;;;;3.12;2.08;;;;;;;;;;1732383;82;21041;-71
2022/06/19 06:25:59;;;;;;;2.17;1.85;;;;;;;;;;1743093;82;21005;-69
2022/06/19 06:28:25;;;;;;;3.15;2.10;;;;;;;;;;1744399;82;21001;-70
2022/06/19 06:30:51;;;;;;;3.72;2.30;;;;;;;;;;1754217;80;20960;-69
2022/06/19 06:33:17;;;;;;;3.08;2.02;;;;;;;;;;1743263;81;21052;-70
2022/06/19 06:35:43;;;;;;;2.12;1.80;;;;;;;;;;1748177;81;21052;-69
2022/06/19 06:38:10;;;;;;;3.87;2.10;;;;;;;;;;1745653;81;21027;-71
2022/06/19 06:40:37;;;;;;;2.72;2.10;;;;;;;;;;1722665;82;21026;-71
2022/06/19 06:43:03;;;;;;;2.75;2.08;;;;;;;;;;1740893;80;21505;-70
2022/06/19 06:45:30;;;;;;;2.47;1.82;;;;;;;;;;1733965;81;21040;-70
2022/06/19 06:47:57;;;;;;;2.65;2.10;;;;;;;;;;1723619;83;21528;-70
2022/06/19 06:50:23;;;;;;;3.30;2.00;;;;;;;;;;1742381;81;21064;-70
2022/06/19 06:52:48;;;;;;;4.00;2.12;;;;;;;;;;1717107;83;21506;-72
2022/06/19 06:55:14;;;;;;;3.10;2.15;;;;;;;;;;1732804;81;21515;-72
2022/06/19 06:57:41;;;;;;;2.60;2.00;;;;;;;;;;1732061;83;21071;-72
2022/06/19 07:00:08;;;;;;;5.33;2.05;;;;;;;;;;1728453;81;21022;-72
2022/06/19 07:02:36;;;;;;;3.22;2.00;;;;;;;;;;1724989;81;21119;-71
2022/06/19 07:05:02;;;;;;;2.80;2.30;;;;;;;;;;1736434;81;21064;-72
2022/06/19 07:07:29;;;;;;;3.17;2.10;;;;;;;;;;1757964;80;21078;-72
2022/06/19 07:09:56;;;;;;;4.03;2.00;;;;;;;;;;1754446;80;22085;-71
2022/06/19 07:12:22;;;;;;;3.50;1.98;;;;;;;;;;1755911;81;21057;-72
2022/06/19 07:14:50;;;;;;;3.25;2.12;;;;;;;;;;1762526;80;21077;-73
2022/06/19 07:17:18;;;;;;;3.55;2.20;;;;;;;;;;1762406;80;21084;-74
2022/06/19 07:19:44;;;;;;;3.05;2.17;;;;;;;;;;1763048;80;21111;-72
2022/06/19 07:22:11;;;;;;;3.52;2.10;;;;;;;;;;1759530;80;20972;-73
2022/06/19 07:24:37;;;;;;;2.12;1.92;;;;;;;;;;1755072;80;21011;-73
2022/06/19 07:27:04;;;;;;;2.62;1.90;;;;;;;;;;1753461;80;21043;-73
2022/06/19 07:29:30;;;;;;;2.37;1.90;;;;;;;;;;1757943;80;21028;-72
2022/06/19 07:31:57;;;;;;;2.47;1.90;;;;;;;;;;1746264;80;21519;-73
2022/06/19 07:34:23;;;;;;;2.70;2.00;;;;;;;;;;1756857;80;21013;-73
2022/06/19 07:36:49;;;;;;;3.92;1.98;;;;;;;;;;1744481;80;21024;-73
2022/06/19 07:39:15;;;;;;;2.87;1.65;;;;;;;;;;1764958;81;21028;-73
2022/06/19 07:41:41;;;;;;;1.98;1.85;;;;;;;;;;1754055;80;21009;-73
2022/06/19 07:44:07;;;;;;;2.17;1.90;;;;;;;;;;1757271;80;21229;-73
2022/06/19 07:50:09;;;;;;;1.72;1.62;;;;;;;;;;1758660;80;21161;-72
2022/06/19 07:51:46;;;;;;;2.50;1.90;;;;;;;;;;1768012;80;21063;-71
2022/06/19 07:54:13;;;;;;;4.15;1.77;;;;;;;;;;1759525;80;21054;-71
2022/06/19 07:56:40;;;;;;;1.77;1.60;;;;;;;;;;1770788;80;20973;-72
2022/06/19 07:59:06;;;;;;;2.00;1.80;;;;;;;;;;1739245;82;21574;-72
2022/06/19 08:01:32;;;;;;;1.90;1.70;;;;;;;;;;1770097;79;21091;-72
2022/06/19 08:03:59;;;;;;;1.80;1.67;;;;;;;;;;1736228;81;21558;-72
2022/06/19 08:06:25;;;;;;;2.22;1.90;;;;;;;;;;1759877;81;21057;-72
2022/06/19 08:08:51;;;;;;;4.25;2.00;;;;;;;;;;1763898;81;20996;-74
2022/06/19 08:11:17;;;;;;;2.17;1.87;;;;;;;;;;1742186;82;21036;-74
2022/06/19 08:13:45;;;;;;;1.85;1.52;;;;;;;;;;1739035;81;21503;-71
2022/06/19 08:16:11;;;;;;;1.90;1.70;;;;;;;;;;1744277;81;21040;-73
2022/06/19 08:18:39;;;;;;;2.95;1.70;;;;;;;;;;1740160;82;21095;-72
2022/06/19 08:21:06;;;;;;;2.85;1.82;;;;;;;;;;1740784;82;21040;-73
2022/06/19 08:23:32;;;;;;;2.50;1.60;;;;;;;;;;1738968;81;21579;-71
2022/06/19 08:25:59;;;;;;;6.00;4.90;;;;;;;;;;1745707;81;21541;-70
2022/06/19 08:28:32;;;;;;;4.40;3.40;;;;;;;;;;1739516;82;21045;-70
2022/06/19 08:30:53;;;;;;;2.67;2.20;;;;;;;;;;1707312;84;21576;-69
2022/06/19 08:33:20;;;;;;;1.98;1.80;;;;;;;;;;1709973;83;21064;-71
2022/06/19 08:35:47;;;;;;;3.42;1.80;;;;;;;;;;1728077;82;21077;-72
2022/06/19 08:38:15;;;;;;;2.65;1.95;;;;;;;;;;1712347;82;21051;-73
2022/06/19 08:41:00;;;;;;;2.42;1.92;;;;;;;;;;1720856;81;21002;-69
2022/06/19 08:43:28;;;;;;;4.58;1.80;;;;;;;;;;1725916;81;21035;-68
2022/06/19 08:45:59;;;;;;;1.92;1.62;;;;;;;;;;1727041;81;21061;-69
2022/06/19 08:48:27;;;;;;;3.40;1.90;;;;;;;;;;1732454;82;21044;-67
2022/06/19 08:51:01;;;;;;;2.67;1.95;;;;;;;;;;1741541;82;21057;-68
2022/06/19 08:53:32;;;;;;;2.20;1.72;;;;;;;;;;1729240;82;21084;-68
2022/06/19 08:56:12;;;;;;;2.45;1.80;;;;;;;;;;1728654;82;21072;-69
2022/06/19 08:58:44;;;;;;;2.00;1.77;;;;;;;;;;1728474;81;21017;-68
2022/06/19 09:01:12;;;;;;;2.10;1.45;;;;;;;;;;1727663;82;21621;-68
2022/06/19 09:06:40;;;;;;;2.80;1.90;;;;;;;;;;1746348;81;21103;-71
2022/06/19 09:09:12;;;;;;;3.22;1.77;;;;;;;;;;1759321;81;21064;-68
2022/06/19 09:11:40;;;;;;;3.12;1.70;;;;;;;;;;1740012;80;21521;-68
2022/06/19 09:14:18;;;;;;;2.72;1.70;;;;;;;;;;1731905;80;21092;-69
2022/06/19 09:16:58;;;;;;;2.47;1.87;;;;;;;;;;1752495;80;21025;-68
2022/06/19 09:19:27;;;;;;;4.35;1.80;;;;;;;;;;1759050;81;21052;-68
2022/06/19 09:22:01;;;;;;;2.00;1.80;;;;;;;;;;1776451;79;21067;-67
2022/06/19 09:24:29;;;;;;;2.83;1.70;;;;;;;;;;1762188;81;21083;-68
2022/06/19 09:26:57;;;;;;;1.72;1.60;;;;;;;;;;1770227;81;21040;-68
2022/06/19 09:29:35;;;;;;;2.72;1.90;;;;;;;;;;1736881;81;21128;-69
2022/06/19 09:32:03;;;;;;;3.60;1.95;;;;;;;;;;1773811;80;20982;-68
2022/06/19 09:34:31;;;;;;;1.55;1.45;;;;;;;;;;1772928;79;21039;-68
2022/06/19 09:37:10;;;;;;;2.15;1.80;;;;;;;;;;1774560;79;21055;-68
2022/06/19 09:39:47;;;;;;;3.25;1.80;;;;;;;;;;1736346;81;21040;-68
2022/06/19 09:42:11;;;;;;;3.30;1.77;;;;;;;;;;1761752;80;21061;-67
2022/06/19 09:44:39;;;;;;;2.15;1.70;;;;;;;;;;1772484;79;21128;-67
2022/06/19 09:47:16;;;;;;;3.17;2.10;;;;;;;;;;1789748;79;21035;-68
2022/06/19 09:51:07;;;;;;;2.10;1.80;;;;;;;;;;1794396;78;24106;-68
2022/06/19 09:53:44;;;;;;;6.87;2.45;;;;;;;;;;1758516;81;21046;-68
2022/06/19 09:56:16;;;;;;;2.77;1.70;;;;;;;;;;1753019;80;21523;-69
2022/06/19 09:58:54;;;;;;;3.40;1.70;;;;;;;;;;1752114;81;21048;-68
2022/06/19 10:01:21;;;;;;;2.30;1.75;;;;;;;;;;1741531;80;21076;-67
2022/06/19 10:03:49;;;;;;;2.00;1.80;;;;;;;;;;1741730;82;20993;-68
2022/06/19 10:06:25;;;;;;;2.67;1.77;;;;;;;;;;1731896;82;21029;-68
2022/06/19 10:08:52;;;;;;;2.58;1.82;;;;;;;;;;1723790;82;21575;-69
2022/06/19 10:11:31;;;;;;;3.70;1.62;;;;;;;;;;1663647;84;21107;-68
2022/06/19 10:13:59;;;;;;;3.15;2.08;;;;;;;;;;1661102;85;21068;-70
2022/06/19 10:16:27;;;;;;;1.90;1.70;;;;;;;;;;1678610;84;21127;-69
2022/06/19 10:18:59;;;;;;;1.70;1.60;;;;;;;;;;1678305;85;21112;-70
2022/06/19 10:24:21;;;;;;;3.17;1.90;;;;;;;;;;1614890;88;21099;-69
2022/06/19 10:26:50;;;;;;;2.83;1.90;;;;;;;;;;1656900;85;21084;-67
2022/06/19 10:29:18;;;;;;;3.35;2.00;;;;;;;;;;1690693;84;21078;-68
2022/06/19 10:31:52;;;;;;;1.90;1.70;;;;;;;;;;1689625;84;21084;-68
2022/06/19 10:34:29;;;;;;;2.30;1.87;;;;;;;;;;1682414;84;21076;-69
2022/06/19 10:36:57;;;;;;;3.42;1.72;;;;;;;;;;1694319;84;21028;-74
2022/06/19 10:39:25;;;;;;;2.40;1.80;;;;;;;;;;1690515;84;21033;-69
2022/06/19 10:42:04;;;;;;;3.02;1.70;;;;;;;;;;1689526;84;21115;-67
2022/06/19 10:44:35;;;;;;;2.52;1.80;;;;;;;;;;1700280;84;21037;-69
2022/06/19 10:47:14;;;;;;;1.87;1.50;;;;;;;;;;1691046;84;21060;-69
2022/06/19 10:49:42;;;;;;;3.25;1.70;;;;;;;;;;1671260;84;21085;-69
2022/06/19 10:52:13;;;;;;;1.65;1.55;;;;;;;;;;1713469;83;21113;-69
2022/06/19 10:54:42;;;;;;;2.80;1.95;;;;;;;;;;1742643;80;21092;-68
2022/06/19 10:57:13;;;;;;;3.30;1.60;;;;;;;;;;1720670;82;21081;-70
2022/06/19 10:59:39;;;;;;;4.33;1.90;;;;;;;;;;1710298;81;21058;-68
2022/06/19 11:05:05;;;;;;;4.08;1.85;;;;;;;;;;1717889;82;21033;-68
2022/06/19 11:07:31;;;;;;;1.90;1.50;;;;;;;;;;1731626;82;21017;-69
2022/06/19 11:10:02;;;;;;;3.80;1.87;;;;;;;;;;1724347;82;21052;-69
2022/06/19 11:12:32;;;;;;;2.50;1.65;;;;;;;;;;1714425;82;21100;-68
2022/06/19 11:14:59;;;;;;;2.95;1.75;;;;;;;;;;1694288;84;21072;-68
2022/06/19 11:17:28;;;;;;;2.27;1.70;;;;;;;;;;1657750;86;21064;-70
2022/06/19 11:19:55;;;;;;;3.77;1.70;;;;;;;;;;1739815;82;21061;-70
2022/06/19 11:22:29;;;;;;;3.08;1.90;;;;;;;;;;1739229;82;21057;-68
2022/06/19 11:24:58;;;;;;;1.82;1.60;;;;;;;;;;1723189;82;21581;-69
2022/06/19 11:27:25;;;;;;;3.05;1.65;;;;;;;;;;1709717;82;21054;-70
2022/06/19 11:29:51;;;;;;;1.85;1.65;;;;;;;;;;1710328;84;21528;-70
2022/06/19 11:32:18;;;;;;;2.35;1.72;;;;;;;;;;1726165;82;21092;-70
2022/06/19 11:34:48;;;;;;;2.45;1.80;;;;;;;;;;1739156;82;21017;-69
2022/06/19 11:37:24;;;;;;;2.22;1.70;;;;;;;;;;1700706;84;21064;-69
2022/06/19 11:39:55;;;;;;;5.15;3.00;;;;;;;;;;1671912;85;22101;-70
2022/06/19 11:42:29;;;;;;;2.95;2.00;;;;;;;;;;1694946;84;21064;-69
2022/06/19 11:44:57;;;;;;;2.70;1.72;;;;;;;;;;1688261;84;21520;-70
2022/06/19 11:47:28;;;;;;;2.75;1.70;;;;;;;;;;1694263;84;21032;-69
2022/06/19 11:50:08;;;;;;;4.25;1.82;;;;;;;;;;1703506;83;21064;-69
2022/06/19 11:52:35;;;;;;;4.12;1.70;;;;;;;;;;1693820;84;21094;-69
2022/06/19 11:55:01;;;;;;;2.27;1.60;;;;;;;;;;1694637;84;21087;-69
2022/06/19 11:57:30;;;;;;;3.12;1.87;;;;;;;;;;1705284;83;21523;-70
2022/06/19 11:59:57;;;;;;;3.92;1.80;;;;;;;;;;1693708;84;21080;-70
2022/06/19 12:02:37;;;;;;;3.80;1.70;;;;;;;;;;1722645;83;21502;-69
2022/06/19 12:05:10;;;;;;;2.40;1.70;;;;;;;;;;1709976;83;21122;-69
2022/06/19 12:07:36;;;;;;;2.65;1.70;;;;;;;;;;1693649;84;21071;-69
2022/06/19 12:10:04;;;;;;;2.90;1.70;;;;;;;;;;1692742;84;21045;-69
2022/06/19 12:12:31;;;;;;;3.55;1.80;;;;;;;;;;1719938;83;21034;-69
2022/06/19 12:15:01;;;;;;;3.52;1.80;;;;;;;;;;1712096;83;21035;-70
2022/06/19 12:17:33;;;;;;;3.40;1.72;;;;;;;;;;1679324;84;21031;-69
2022/06/19 12:20:00;;;;;;;3.50;1.90;;;;;;;;;;1702513;83;21066;-70
2022/06/19 12:22:28;;;;;;;3.22;1.90;;;;;;;;;;1679452;84;21633;-69
2022/06/19 12:24:56;;;;;;;2.30;1.92;;;;;;;;;;1686481;84;21094;-68
2022/06/19 12:27:22;;;;;;;3.17;1.80;;;;;;;;;;1700190;84;21112;-69
2022/06/19 12:29:52;;;;;;;3.30;1.80;;;;;;;;;;1727551;82;21029;-69
2022/06/19 12:32:26;;;;;;;3.98;1.70;;;;;;;;;;1691178;83;21063;-70
2022/06/19 12:34:53;;;;;;;4.97;1.75;;;;;;;;;;1702143;83;21088;-70
2022/06/19 12:37:20;;;;;;;2.45;1.80;;;;;;;;;;1675291;83;21084;-69
2022/06/19 12:39:46;;;;;;;4.95;2.58;;;;;;;;;;1702974;83;21083;-70
2022/06/19 12:42:20;;;;;;;5.25;2.40;;;;;;;;;;1674428;85;21111;-70
2022/06/19 12:44:52;;;;;;;5.53;2.27;;;;;;;;;;1674690;84;21054;-68
2022/06/19 12:47:20;;;;;;;2.60;1.80;;;;;;;;;;1677607;85;21069;-67
2022/06/19 12:50:05;;;;;;;3.37;1.80;;;;;;;;;;1697986;83;21052;-68
2022/06/19 12:52:42;;;;;;;2.58;1.82;;;;;;;;;;1688379;84;21030;-68
2022/06/19 12:55:16;;;;;;;2.62;2.02;;;;;;;;;;1716646;83;22268;-69
2022/06/19 12:57:45;;;;;;;3.20;1.95;;;;;;;;;;1681150;85;21093;-68
2022/06/19 13:00:17;;;;;;;7.15;2.20;;;;;;;;;;1729577;82;21096;-68
2022/06/19 13:02:51;;;;;;;4.28;1.80;;;;;;;;;;1711702;82;21080;-68
2022/06/19 13:05:19;;;;;;;5.12;2.10;;;;;;;;;;1720385;82;21509;-68
2022/06/19 13:08:05;;;;;;;5.53;3.83;;;;;;;;;;1736968;82;21062;-67
2022/06/19 13:10:41;;;;;;;4.45;2.62;;;;;;;;;;1696886;82;21060;-67
2022/06/19 13:13:12;;;;;;;3.77;2.15;;;;;;;;;;1728504;82;21079;-70
2022/06/19 13:15:40;;;;;;;3.70;2.35;;;;;;;;;;1726780;82;21089;-69
2022/06/19 13:18:09;;;;;;;3.80;1.80;;;;;;;;;;1728647;82;21017;-70
2022/06/19 13:20:38;;;;;;;3.05;1.90;;;;;;;;;;1720819;82;21061;-69
2022/06/19 13:23:06;;;;;;;3.05;2.05;;;;;;;;;;1714137;82;21553;-70
2022/06/19 13:25:53;;;;;;;4.60;1.98;;;;;;;;;;1733923;82;21056;-70
2022/06/19 13:28:27;;;;;;;4.03;2.35;;;;;;;;;;1734561;81;21033;-69
2022/06/19 13:30:56;;;;;;;4.40;2.50;;;;;;;;;;1723501;81;21619;-69
2022/06/19 13:33:40;;;;;;;5.15;2.33;;;;;;;;;;1702576;82;21533;-69
2022/06/19 13:36:12;;;;;;;4.28;2.10;;;;;;;;;;1725741;82;21096;-70
2022/06/19 13:38:42;;;;;;;3.72;1.90;;;;;;;;;;1653046;86;21537;-69
2022/06/19 13:41:20;;;;;;;2.40;1.80;;;;;;;;;;1737831;82;21080;-70
2022/06/19 13:43:57;;;;;;;2.37;1.75;;;;;;;;;;1722020;82;21229;-70
2022/06/19 13:46:26;;;;;;;3.22;2.00;;;;;;;;;;1720889;82;21033;-72
2022/06/19 13:48:54;;;;;;;2.77;1.85;;;;;;;;;;1714918;82;21048;-70
2022/06/19 13:51:22;;;;;;;3.98;2.10;;;;;;;;;;1719099;82;21068;-70
2022/06/19 13:53:54;;;;;;;2.15;1.77;;;;;;;;;;1732286;81;21073;-68
2022/06/19 13:56:22;;;;;;;2.33;1.77;;;;;;;;;;1659991;86;21064;-69
2022/06/19 13:58:50;;;;;;;2.65;1.90;;;;;;;;;;1720082;82;21009;-70
2022/06/19 14:01:18;;;;;;;3.98;2.00;;;;;;;;;;1713315;82;21528;-68
2022/06/19 14:06:41;;;;;;;3.40;1.95;;;;;;;;;;1724274;82;21033;-68
2022/06/19 14:09:16;;;;;;;3.65;2.12;;;;;;;;;;1739129;82;21552;-69
2022/06/19 14:14:27;;;;;;;2.70;2.00;;;;;;;;;;1609863;87;21036;-67
2022/06/19 14:16:57;;;;;;;3.30;2.10;;;;;;;;;;1602706;87;21104;-68
2022/06/19 14:19:25;;;;;;;9.40;7.25;;;;;;;;;;1728021;82;21105;-68
2022/06/19 14:21:56;;;;;;;4.60;3.52;;;;;;;;;;1713539;82;21044;-68
2022/06/19 14:24:31;;;;;;;3.80;2.60;;;;;;;;;;1722380;82;21603;-68
2022/06/19 14:27:16;;;;;;;3.67;2.30;;;;;;;;;;1725495;82;21069;-71
2022/06/19 14:29:47;;;;;;;3.87;2.30;;;;;;;;;;1712293;82;21097;-69
2022/06/19 14:32:15;;;;;;;2.58;1.95;;;;;;;;;;1721007;82;21009;-69
2022/06/19 14:34:46;;;;;;;2.83;2.00;;;;;;;;;;1724559;82;21013;-68
2022/06/19 14:37:31;;;;;;;2.67;1.90;;;;;;;;;;1714141;82;21072;-69
2022/06/19 14:39:58;;;;;;;2.95;2.17;;;;;;;;;;1715566;82;21033;-69
2022/06/19 14:42:24;;;;;;;4.15;2.00;;;;;;;;;;1713007;82;21056;-68
2022/06/19 14:44:52;;;;;;;4.65;2.20;;;;;;;;;;1718793;82;21049;-69
2022/06/19 14:47:21;;;;;;;3.83;1.90;;;;;;;;;;1729366;82;21143;-68
2022/06/19 14:49:52;;;;;;;3.25;2.05;;;;;;;;;;1726518;82;21076;-68
2022/06/19 14:52:35;;;;;;;2.72;2.00;;;;;;;;;;1722960;82;22143;-68
2022/06/19 14:55:03;;;;;;;5.05;2.52;;;;;;;;;;1741196;80;21001;-68
2022/06/19 14:57:49;;;;;;;3.35;2.30;;;;;;;;;;1700573;84;21044;-70
2022/06/19 15:00:20;;;;;;;4.28;2.50;;;;;;;;;;1694852;84;21079;-69
2022/06/19 15:02:52;;;;;;;3.47;2.05;;;;;;;;;;1735511;82;21071;-69
2022/06/19 15:05:23;;;;;;;3.27;2.30;;;;;;;;;;1747558;82;21013;-69
2022/06/19 15:07:51;;;;;;;6.95;2.52;;;;;;;;;;1745972;81;20989;-69
2022/06/19 15:10:22;;;;;;;3.87;2.08;;;;;;;;;;1735277;82;21012;-68
2022/06/19 15:12:50;;;;;;;3.22;2.10;;;;;;;;;;1746380;82;20997;-69
2022/06/19 15:15:24;;;;;;;3.33;2.20;;;;;;;;;;1739114;82;21091;-69